Time;durP1;ratioP1;P1;durP2;ratioP2;P2;SDS_P1;SDS_P2;PMS_P1;PMS_P2;Temp;Humidity;BMP_temperature;BMP_pressure;BME280_temperature;BME280_humidity;BME280_pressure;Samples;Min_cycle;Max_cycle;Signal;HPM_P1;HPM_P2
2024/04/22 00:02:18;;;;;;;4.75;1.02;;;4.60;99.90;;;;;;5356796;26;20669;-70
2024/04/22 00:04:44;;;;;;;1.38;0.60;;;4.60;99.90;;;;;;5355878;26;20001;-70
2024/04/22 00:07:11;;;;;;;1.77;0.80;;;4.50;99.90;;;;;;5364434;26;20000;-69
2024/04/22 00:09:37;;;;;;;1.95;0.63;;;4.60;99.90;;;;;;5366012;26;20492;-69
2024/04/22 00:12:03;;;;;;;1.75;0.77;;;4.60;99.90;;;;;;5365051;26;20026;-68
2024/04/22 00:14:28;;;;;;;1.95;0.85;;;4.70;99.90;;;;;;5355740;26;20004;-68
2024/04/22 00:16:54;;;;;;;3.65;0.70;;;4.70;99.90;;;;;;5356462;26;20079;-70
2024/04/22 00:19:19;;;;;;;2.40;0.60;;;4.70;99.90;;;;;;5358232;26;20074;-70
2024/04/22 00:21:45;;;;;;;3.45;0.85;;;4.60;99.90;;;;;;5362538;26;20012;-68
2024/04/22 00:24:11;;;;;;;1.95;0.70;;;4.70;99.90;;;;;;5342746;26;20000;-67
2024/04/22 00:26:36;;;;;;;1.20;0.43;;;4.60;99.90;;;;;;5323806;26;20009;-69
2024/04/22 00:29:02;;;;;;;2.13;1.00;;;4.60;99.90;;;;;;5358216;26;20070;-71
2024/04/22 00:31:27;;;;;;;1.95;0.80;;;4.50;99.90;;;;;;5355752;26;20531;-70
2024/04/22 00:33:53;;;;;;;3.47;1.27;;;4.50;99.90;;;;;;5356902;26;20055;-70
2024/04/22 00:36:19;;;;;;;2.45;0.63;;;4.40;99.90;;;;;;5358160;26;20004;-69
2024/04/22 00:38:48;;;;;;;4.10;0.77;;;4.40;99.90;;;;;;5324875;26;20461;-68
2024/04/22 00:41:13;;;;;;;3.53;1.00;;;4.40;99.90;;;;;;5360283;26;20018;-70
2024/04/22 00:43:39;;;;;;;2.03;0.85;;;4.40;99.90;;;;;;5367587;26;20477;-71
2024/04/22 00:46:05;;;;;;;2.63;0.90;;;4.30;99.90;;;;;;5353165;26;20359;-72
2024/04/22 00:48:31;;;;;;;2.08;0.98;;;4.30;99.90;;;;;;5352133;26;20042;-72
2024/04/22 00:50:58;;;;;;;1.42;0.82;;;4.30;99.90;;;;;;5352737;26;20015;-72
2024/04/22 00:53:26;;;;;;;1.60;1.00;;;4.30;99.90;;;;;;5359810;26;20445;-70
2024/04/22 00:55:54;;;;;;;2.55;0.82;;;4.20;99.90;;;;;;5323492;26;20011;-70
2024/04/22 00:58:21;;;;;;;2.58;1.00;;;4.20;99.90;;;;;;5355735;26;20074;-67
2024/04/22 01:00:47;;;;;;;3.03;1.10;;;4.20;99.90;;;;;;5358209;26;20429;-66
2024/04/22 01:03:14;;;;;;;3.80;0.90;;;4.10;99.90;;;;;;5353401;26;20072;-68
2024/04/22 01:05:40;;;;;;;2.00;0.90;;;4.10;99.90;;;;;;5365325;26;20039;-70
2024/04/22 01:08:06;;;;;;;5.63;1.17;;;4.10;99.90;;;;;;5322276;26;20004;-70
2024/04/22 01:10:31;;;;;;;1.50;1.02;;;4.10;99.90;;;;;;5328214;26;20004;-70
2024/04/22 01:12:57;;;;;;;2.22;1.20;;;4.10;99.90;;;;;;5354899;26;20016;-70
2024/04/22 01:15:23;;;;;;;1.60;0.98;;;4.00;99.90;;;;;;5360860;26;20004;-69
2024/04/22 01:17:48;;;;;;;2.78;0.98;;;4.00;99.90;;;;;;5357652;26;20008;-67
2024/04/22 01:20:14;;;;;;;2.80;0.80;;;4.00;99.90;;;;;;5358149;26;20817;-70
2024/04/22 01:22:40;;;;;;;4.40;1.35;;;4.00;99.90;;;;;;5361260;26;20015;-69
2024/04/22 01:25:07;;;;;;;1.55;0.95;;;3.90;99.90;;;;;;5353633;26;20004;-70
2024/04/22 01:27:34;;;;;;;2.63;1.10;;;3.90;99.90;;;;;;5360032;26;20073;-71
2024/04/22 01:30:05;;;;;;;2.78;1.20;;;3.80;99.90;;;;;;5352742;26;20008;-70
2024/04/22 01:32:31;;;;;;;3.65;1.15;;;3.80;99.90;;;;;;5328903;26;20016;-70
2024/04/22 01:35:01;;;;;;;6.43;1.08;;;3.70;99.90;;;;;;5353152;26;20402;-70
2024/04/22 01:37:27;;;;;;;1.77;0.77;;;3.70;99.90;;;;;;5357689;26;20019;-69
2024/04/22 01:39:53;;;;;;;2.17;1.25;;;3.70;99.90;;;;;;5365220;26;20000;-71
2024/04/22 01:42:19;;;;;;;3.42;1.08;;;3.70;99.90;;;;;;5356744;26;20001;-71
2024/04/22 01:44:44;;;;;;;1.95;1.17;;;3.70;99.90;;;;;;5360285;26;20331;-71
2024/04/22 01:47:10;;;;;;;2.00;1.30;;;3.70;99.90;;;;;;5354534;26;20085;-70
2024/04/22 01:49:35;;;;;;;2.47;1.20;;;3.70;99.90;;;;;;5328017;26;20005;-72
2024/04/22 01:52:01;;;;;;;2.83;1.33;;;3.70;99.90;;;;;;5355220;26;20012;-68
2024/04/22 01:54:26;;;;;;;6.55;0.98;;;3.60;99.90;;;;;;5365637;26;20055;-69
2024/04/22 01:56:55;;;;;;;3.53;1.50;;;3.60;99.90;;;;;;5354278;26;20046;-71
2024/04/22 01:59:22;;;;;;;3.53;1.48;;;3.60;99.90;;;;;;5351311;26;20012;-67
2024/04/22 02:01:47;;;;;;;1.58;0.98;;;3.60;99.90;;;;;;5351223;26;21072;-71
2024/04/22 02:04:13;;;;;;;2.75;1.00;;;3.50;99.90;;;;;;5353634;26;20004;-68
2024/04/22 02:06:38;;;;;;;1.73;1.00;;;3.50;99.90;;;;;;5358826;26;19997;-68
2024/04/22 02:09:04;;;;;;;8.75;1.45;;;3.50;99.90;;;;;;5354818;26;20074;-70
2024/04/22 02:11:29;;;;;;;1.70;1.05;;;3.40;99.90;;;;;;5330086;26;20322;-68
2024/04/22 02:13:55;;;;;;;2.80;1.58;;;3.40;99.90;;;;;;5354185;26;20001;-69
2024/04/22 02:16:20;;;;;;;3.08;1.42;;;3.40;99.90;;;;;;5358536;26;20001;-70
2024/04/22 02:18:46;;;;;;;3.35;1.23;;;3.40;99.90;;;;;;5358367;26;20014;-70
2024/04/22 02:21:11;;;;;;;2.22;1.23;;;3.40;99.90;;;;;;5352851;26;20016;-70
2024/04/22 02:23:37;;;;;;;2.38;1.27;;;3.30;99.90;;;;;;5357936;26;20338;-70
2024/04/22 02:26:03;;;;;;;1.70;1.10;;;3.30;99.90;;;;;;5363137;26;20543;-70
2024/04/22 02:28:29;;;;;;;2.00;0.98;;;3.30;99.90;;;;;;5356589;26;20079;-70
2024/04/22 02:30:55;;;;;;;2.20;1.20;;;3.30;99.90;;;;;;5364396;26;20011;-69
2024/04/22 02:33:21;;;;;;;2.20;1.27;;;3.30;99.90;;;;;;5359151;26;20013;-69
2024/04/22 02:35:47;;;;;;;2.33;1.20;;;3.20;99.90;;;;;;5355030;26;20015;-70
2024/04/22 02:38:13;;;;;;;3.63;1.58;;;3.20;99.90;;;;;;5354890;26;20012;-69
2024/04/22 02:40:39;;;;;;;2.55;1.17;;;3.20;99.90;;;;;;5354106;26;20494;-70
2024/04/22 02:43:05;;;;;;;1.95;1.17;;;3.20;99.90;;;;;;5352479;26;20003;-69
2024/04/22 02:45:30;;;;;;;4.93;1.60;;;3.20;99.90;;;;;;5358314;26;20330;-70
2024/04/22 02:47:56;;;;;;;1.90;1.00;;;3.20;99.90;;;;;;5351444;26;20086;-70
2024/04/22 02:50:22;;;;;;;2.65;1.10;;;3.30;99.90;;;;;;5327680;26;20497;-68
2024/04/22 02:52:47;;;;;;;9.13;2.53;;;3.30;99.90;;;;;;5356478;26;20013;-69
2024/04/22 02:55:13;;;;;;;5.05;1.08;;;3.30;99.90;;;;;;5355282;26;20019;-69
2024/04/22 02:57:38;;;;;;;1.98;1.17;;;3.40;99.90;;;;;;5356509;26;20447;-70
2024/04/22 03:00:04;;;;;;;2.50;1.17;;;3.40;99.90;;;;;;5355149;26;20466;-67
2024/04/22 03:02:30;;;;;;;3.92;1.27;;;3.50;99.90;;;;;;5357469;26;20337;-67
2024/04/22 03:04:56;;;;;;;2.47;1.08;;;3.60;99.90;;;;;;5352197;26;20036;-69
2024/04/22 03:07:21;;;;;;;2.35;1.15;;;3.70;99.90;;;;;;5362404;26;20004;-70
2024/04/22 03:09:47;;;;;;;2.38;1.02;;;3.80;99.90;;;;;;5354669;26;20022;-70
2024/04/22 03:12:13;;;;;;;2.30;0.93;;;3.90;99.90;;;;;;5352691;26;20000;-70
2024/04/22 03:14:38;;;;;;;3.85;1.63;;;3.90;99.90;;;;;;5356777;26;20009;-72
2024/04/22 03:17:04;;;;;;;9.23;2.40;;;4.00;99.90;;;;;;5356206;26;20075;-68
2024/04/22 03:19:30;;;;;;;2.72;1.17;;;4.10;99.90;;;;;;5358658;26;20000;-68
2024/04/22 03:21:55;;;;;;;5.13;1.10;;;4.10;99.90;;;;;;5352046;26;20023;-69
2024/04/22 03:24:21;;;;;;;3.22;0.98;;;4.20;99.90;;;;;;5357353;26;20540;-68
2024/04/22 03:26:47;;;;;;;5.35;0.98;;;4.30;99.90;;;;;;5360593;26;20015;-71
2024/04/22 03:29:13;;;;;;;1.90;0.70;;;4.30;99.90;;;;;;5353274;26;20019;-70
2024/04/22 03:31:38;;;;;;;1.60;0.52;;;4.40;99.90;;;;;;5355077;26;20028;-72
2024/04/22 03:34:04;;;;;;;2.67;0.70;;;4.50;99.90;;;;;;5354329;26;20000;-70
2024/04/22 03:36:30;;;;;;;4.22;0.45;;;4.40;99.90;;;;;;5361638;26;19996;-70
2024/04/22 03:38:56;;;;;;;3.45;0.77;;;4.60;99.90;;;;;;5359149;26;20012;-69
2024/04/22 03:41:21;;;;;;;0.68;0.52;;;4.60;99.90;;;;;;5351304;26;20000;-68
2024/04/22 03:43:47;;;;;;;3.58;1.13;;;4.70;99.90;;;;;;5368398;26;20000;-71
2024/04/22 03:51:41;;;;;;;3.08;0.38;;;4.70;99.90;;;;;;5362685;26;20040;-67
2024/04/22 03:54:07;;;;;;;3.08;0.70;;;4.70;99.90;;;;;;5360450;26;20421;-69
2024/04/22 03:56:32;;;;;;;1.83;0.80;;;4.60;99.90;;;;;;5366159;26;20016;-70
2024/04/22 03:58:58;;;;;;;3.25;0.40;;;4.60;99.90;;;;;;5355442;26;20040;-71
2024/04/22 04:01:23;;;;;;;1.98;0.28;;;4.50;99.90;;;;;;5360571;26;20004;-68
2024/04/22 04:03:49;;;;;;;3.53;0.32;;;4.50;99.90;;;;;;5356855;26;20016;-71
2024/04/22 04:06:14;;;;;;;2.20;0.90;;;4.40;99.90;;;;;;5371566;26;20027;-69
2024/04/22 04:08:40;;;;;;;2.83;0.40;;;4.40;99.90;;;;;;5359854;26;20011;-69
2024/04/22 04:11:12;;;;;;;1.63;0.50;;;4.30;99.90;;;;;;5354428;26;20000;-74
2024/04/22 04:13:39;;;;;;;1.48;0.40;;;4.20;99.90;;;;;;5324011;26;20009;-66
2024/04/22 04:16:04;;;;;;;3.05;0.30;;;4.20;99.90;;;;;;5352453;26;19993;-72
2024/04/22 04:18:30;;;;;;;0.93;0.40;;;4.10;99.90;;;;;;5356563;26;20195;-68
2024/04/22 04:20:56;;;;;;;0.65;0.30;;;4.00;99.90;;;;;;5363066;26;20000;-68
2024/04/22 04:23:21;;;;;;;1.58;0.40;;;4.00;99.90;;;;;;5355260;26;20323;-69
2024/04/22 04:25:47;;;;;;;2.63;0.75;;;3.90;99.90;;;;;;5360096;26;20010;-70
2024/04/22 04:28:12;;;;;;;3.13;0.30;;;3.90;99.90;;;;;;5349392;26;20005;-67
2024/04/22 04:30:38;;;;;;;2.55;0.43;;;3.90;99.90;;;;;;5357625;26;20033;-68
2024/04/22 04:33:04;;;;;;;1.42;0.30;;;3.90;99.90;;;;;;5360116;26;20400;-70
2024/04/22 04:35:29;;;;;;;3.17;0.50;;;4.00;99.90;;;;;;5323876;26;19997;-71
2024/04/22 04:37:55;;;;;;;6.18;0.63;;;3.90;99.90;;;;;;5354760;26;19993;-70
2024/04/22 04:40:20;;;;;;;1.35;0.40;;;3.90;99.90;;;;;;5361455;26;20459;-69
2024/04/22 04:42:46;;;;;;;2.20;0.35;;;3.90;99.90;;;;;;5363422;26;20342;-70
2024/04/22 04:45:12;;;;;;;1.58;0.60;;;3.90;99.90;;;;;;5351801;26;20070;-69
2024/04/22 04:47:37;;;;;;;1.58;0.35;;;3.80;99.90;;;;;;5356692;26;19997;-70
2024/04/22 04:50:03;;;;;;;1.17;0.47;;;3.80;99.90;;;;;;5328321;26;20008;-69
2024/04/22 04:52:29;;;;;;;2.78;1.10;;;3.80;99.90;;;;;;5350645;26;20020;-69
2024/04/22 04:54:54;;;;;;;4.65;0.40;;;3.80;99.90;;;;;;5366642;26;20046;-71
2024/04/22 04:57:20;;;;;;;1.95;0.40;;;3.80;99.90;;;;;;5356720;26;19997;-70
2024/04/22 04:59:45;;;;;;;2.70;0.43;;;3.70;99.90;;;;;;5354289;26;20306;-68
2024/04/22 05:02:11;;;;;;;1.35;0.40;;;3.80;99.90;;;;;;5361853;26;20131;-70
2024/04/22 05:04:36;;;;;;;0.80;0.35;;;3.80;99.90;;;;;;5367779;26;20040;-68
2024/04/22 05:07:02;;;;;;;0.60;0.38;;;3.80;99.90;;;;;;5359494;26;20000;-71
2024/04/22 05:09:28;;;;;;;1.33;0.50;;;3.80;99.90;;;;;;5352877;26;20013;-68
2024/04/22 05:11:53;;;;;;;2.08;0.40;;;3.90;99.90;;;;;;5360748;26;20003;-69
2024/04/22 05:14:19;;;;;;;0.88;0.35;;;3.90;99.90;;;;;;5358634;26;20047;-71
2024/04/22 05:16:47;;;;;;;1.95;0.57;;;3.90;99.90;;;;;;5359375;26;20004;-71
2024/04/22 05:19:12;;;;;;;2.15;0.60;;;3.90;99.90;;;;;;5357051;26;20416;-70
2024/04/22 05:21:38;;;;;;;1.08;0.43;;;4.00;99.90;;;;;;5362872;26;20464;-69
2024/04/22 05:24:10;;;;;;;2.55;0.30;;;4.10;99.90;;;;;;5358767;26;20019;-70
2024/04/22 05:26:36;;;;;;;2.05;0.90;;;4.20;99.90;;;;;;5357087;26;20315;-69
2024/04/22 05:29:02;;;;;;;1.45;0.52;;;4.30;99.90;;;;;;5358314;26;20011;-72
2024/04/22 05:31:28;;;;;;;1.33;0.40;;;4.40;99.90;;;;;;5344187;26;20038;-71
2024/04/22 05:36:37;;;;;;;2.42;0.50;;;4.70;99.90;;;;;;5367453;26;20070;-68
2024/04/22 05:39:03;;;;;;;2.17;0.77;;;4.80;99.90;;;;;;5367651;26;20544;-68
2024/04/22 05:41:29;;;;;;;0.82;0.20;;;4.90;99.90;;;;;;5366083;26;20020;-71
2024/04/22 05:43:55;;;;;;;1.33;0.50;;;5.00;99.90;;;;;;5371188;26;20015;-71
2024/04/22 05:46:21;;;;;;;3.10;0.63;;;5.10;99.90;;;;;;5329555;26;20041;-71
2024/04/22 05:48:47;;;;;;;2.58;0.75;;;5.20;99.90;;;;;;5364605;26;20004;-69
2024/04/22 05:51:12;;;;;;;2.53;0.65;;;5.30;99.90;;;;;;5369043;26;20528;-67
2024/04/22 05:53:38;;;;;;;2.22;0.60;;;5.40;99.90;;;;;;5372016;26;20031;-69
2024/04/22 05:56:04;;;;;;;3.50;0.65;;;5.60;99.90;;;;;;5366024;26;20004;-69
2024/04/22 05:58:29;;;;;;;1.30;0.50;;;5.80;99.90;;;;;;5364917;26;20049;-71
2024/04/22 06:00:55;;;;;;;5.80;0.68;;;6.10;99.90;;;;;;5361146;26;20077;-72
2024/04/22 06:03:21;;;;;;;3.40;0.82;;;6.30;99.90;;;;;;5333779;26;20460;-69
2024/04/22 06:05:46;;;;;;;5.75;1.05;;;6.40;99.90;;;;;;5371415;26;20341;-66
2024/04/22 06:08:12;;;;;;;2.92;0.80;;;6.60;99.90;;;;;;5367436;26;20325;-68
2024/04/22 06:10:37;;;;;;;3.28;0.50;;;6.70;99.90;;;;;;5367393;26;20077;-69
2024/04/22 06:13:03;;;;;;;7.15;0.50;;;6.70;99.90;;;;;;5367815;26;20012;-69
2024/04/22 06:15:29;;;;;;;1.85;0.60;;;6.80;99.90;;;;;;5367985;26;20567;-70
2024/04/22 06:17:55;;;;;;;2.42;0.70;;;6.80;99.90;;;;;;5370736;26;20015;-70
2024/04/22 06:20:20;;;;;;;3.80;1.27;;;6.80;99.90;;;;;;5365921;26;20010;-71
2024/04/22 06:22:46;;;;;;;3.28;0.77;;;6.80;99.90;;;;;;5371474;26;20032;-73
2024/04/22 06:25:11;;;;;;;8.40;0.82;;;6.70;99.90;;;;;;5369242;26;20006;-70
2024/04/22 06:27:37;;;;;;;8.27;1.58;;;6.80;99.90;;;;;;5367417;26;20004;-71
2024/04/22 06:30:03;;;;;;;3.70;1.08;;;6.90;99.90;;;;;;5364623;26;20000;-68
2024/04/22 06:32:34;;;;;;;6.78;0.80;;;7.10;99.90;;;;;;5369188;26;20502;-70
2024/04/22 06:35:00;;;;;;;2.35;0.60;;;7.40;99.90;;;;;;5368420;26;20311;-70
2024/04/22 06:37:26;;;;;;;6.88;1.05;;;7.60;99.90;;;;;;5333369;26;20054;-72
2024/04/22 06:39:51;;;;;;;9.15;2.22;;;7.70;99.90;;;;;;5370002;26;20012;-72
2024/04/22 06:42:17;;;;;;;4.47;0.95;;;7.80;99.90;;;;;;5358707;26;20004;-70
2024/04/22 06:44:42;;;;;;;2.97;1.33;;;8.00;99.90;;;;;;5368422;26;20534;-70
2024/04/22 06:47:08;;;;;;;4.22;0.80;;;8.20;99.90;;;;;;5366294;26;20019;-73
2024/04/22 06:49:34;;;;;;;4.22;1.20;;;8.30;99.90;;;;;;5369953;26;20005;-72
2024/04/22 06:51:59;;;;;;;5.97;0.88;;;8.50;99.90;;;;;;5362581;26;20036;-71
2024/04/22 06:54:25;;;;;;;3.13;0.60;;;8.50;99.90;;;;;;5363928;26;20073;-71
2024/04/22 06:56:50;;;;;;;4.03;1.00;;;8.60;99.90;;;;;;5361364;26;20000;-74
2024/04/22 06:59:16;;;;;;;6.65;0.88;;;8.90;99.90;;;;;;5367053;26;20004;-72
2024/04/22 07:01:41;;;;;;;11.45;1.63;;;9.20;99.90;;;;;;5363159;26;20016;-72
2024/04/22 07:04:07;;;;;;;2.13;0.90;;;9.40;99.90;;;;;;5340347;26;20012;-72
2024/04/22 07:06:32;;;;;;;4.50;0.73;;;9.70;99.90;;;;;;5368752;26;20004;-72
2024/04/22 07:08:58;;;;;;;6.00;0.90;;;9.80;99.90;;;;;;5365730;26;20016;-71
2024/04/22 07:11:23;;;;;;;1.80;0.80;;;9.80;99.90;;;;;;5361478;26;20548;-69
2024/04/22 07:13:50;;;;;;;5.68;1.33;;;9.90;99.90;;;;;;5369327;26;20036;-73
2024/04/22 07:16:16;;;;;;;3.28;1.08;;;9.90;99.90;;;;;;5367618;26;20008;-69
2024/04/22 07:18:41;;;;;;;3.67;0.77;;;9.80;99.90;;;;;;5352391;26;20001;-73
2024/04/22 07:21:07;;;;;;;6.63;1.55;;;9.80;99.90;;;;;;5369970;26;20051;-76
2024/04/22 07:23:32;;;;;;;3.47;0.90;;;9.60;99.90;;;;;;5333647;26;20353;-71
2024/04/22 07:26:02;;;;;;;5.45;1.25;;;9.70;99.90;;;;;;5359762;26;20011;-70
2024/04/22 07:28:28;;;;;;;8.82;1.08;;;9.60;99.90;;;;;;5370805;26;20019;-72
2024/04/22 07:30:54;;;;;;;2.22;1.38;;;9.70;99.90;;;;;;5371546;26;20037;-72
2024/04/22 07:33:20;;;;;;;4.00;1.00;;;9.80;99.90;;;;;;5372941;26;20341;-70
2024/04/22 07:35:50;;;;;;;7.63;0.88;;;9.80;99.90;;;;;;5375067;26;20463;-73
2024/04/22 07:38:20;;;;;;;;;;;9.90;99.90;;;;;;5372622;26;20546;-75
2024/04/22 07:40:46;;;;;;;4.10;0.80;;;10.00;99.90;;;;;;5379068;26;19925;-80
2024/04/22 07:43:12;;;;;;;5.65;0.80;;;10.10;99.90;;;;;;5375361;26;20256;-71
2024/04/22 07:45:37;;;;;;;2.42;0.93;;;10.20;99.90;;;;;;5367139;26;20086;-69
2024/04/22 07:48:03;;;;;;;4.72;0.80;;;10.20;99.90;;;;;;5373480;26;19996;-71
2024/04/22 07:50:29;;;;;;;7.05;1.92;;;10.40;99.90;;;;;;5373066;26;20004;-72
2024/04/22 07:52:54;;;;;;;3.25;0.68;;;10.60;99.90;;;;;;5375842;26;20058;-73
2024/04/22 07:55:20;;;;;;;6.68;0.80;;;10.70;99.90;;;;;;5373088;26;20081;-71
2024/04/22 07:57:48;;;;;;;2.25;0.55;;;10.90;99.90;;;;;;5371447;26;20048;-70
2024/04/22 08:00:15;;;;;;;7.78;0.60;;;11.00;99.90;;;;;;5367941;26;20015;-72
2024/04/22 08:02:41;;;;;;;3.92;0.68;;;10.90;99.90;;;;;;5344397;26;20000;-71
2024/04/22 08:05:08;;;;;;;2.72;0.85;;;10.90;99.90;;;;;;5372685;26;20004;-72
2024/04/22 08:07:34;;;;;;;3.58;0.50;;;10.90;99.90;;;;;;5370976;26;20070;-72
2024/04/22 08:10:01;;;;;;;7.88;0.80;;;10.90;99.90;;;;;;5373276;26;20000;-71
2024/04/22 08:12:27;;;;;;;4.00;0.70;;;11.00;99.90;;;;;;5362922;26;20008;-72
2024/04/22 08:14:52;;;;;;;1.60;0.60;;;11.10;99.90;;;;;;5364645;26;20077;-71
2024/04/22 08:17:18;;;;;;;2.85;0.93;;;11.20;99.90;;;;;;5340780;26;20020;-72
2024/04/22 08:19:43;;;;;;;2.20;0.77;;;11.20;99.90;;;;;;5367204;26;20026;-73
2024/04/22 08:22:09;;;;;;;8.05;1.05;;;11.10;99.90;;;;;;5365855;26;20012;-72
2024/04/22 08:24:34;;;;;;;1.40;0.60;;;11.10;99.90;;;;;;5366618;26;20446;-70
2024/04/22 08:27:00;;;;;;;6.47;1.30;;;11.00;99.90;;;;;;5370102;26;20023;-72
2024/04/22 08:29:26;;;;;;;5.30;1.33;;;10.90;99.90;;;;;;5369392;26;20018;-72
2024/04/22 08:31:52;;;;;;;2.80;0.40;;;11.10;99.90;;;;;;5363468;26;20015;-72
2024/04/22 08:34:17;;;;;;;2.03;0.50;;;11.30;99.90;;;;;;5368532;26;20097;-71
2024/04/22 08:36:43;;;;;;;1.50;0.30;;;11.50;99.90;;;;;;5367203;26;20012;-72
2024/04/22 08:39:10;;;;;;;4.25;0.47;;;11.50;99.90;;;;;;5372016;26;20387;-72
2024/04/22 08:41:36;;;;;;;2.50;0.82;;;11.50;99.90;;;;;;5362066;26;20000;-73
2024/04/22 08:44:02;;;;;;;2.75;1.08;;;11.60;99.90;;;;;;5369483;26;20004;-71
2024/04/22 08:46:28;;;;;;;1.45;0.47;;;11.60;99.90;;;;;;5368229;26;20078;-73
2024/04/22 08:48:53;;;;;;;5.80;1.52;;;11.50;99.90;;;;;;5366839;26;20016;-72
2024/04/22 08:51:20;;;;;;;5.50;0.70;;;11.50;99.90;;;;;;5369709;26;20000;-71
2024/04/22 08:53:45;;;;;;;8.00;1.00;;;11.40;99.90;;;;;;5332874;26;20399;-72
2024/04/22 08:56:11;;;;;;;3.25;0.35;;;11.40;99.90;;;;;;5365592;26;20012;-69
2024/04/22 08:58:37;;;;;;;3.35;0.45;;;11.50;99.90;;;;;;5364653;26;20015;-73
2024/04/22 09:01:06;;;;;;;4.22;0.50;;;11.30;99.90;;;;;;5337762;26;20465;-74
2024/04/22 09:03:31;;;;;;;4.53;0.28;;;11.30;99.20;;;;;;5368086;26;20337;-70
2024/04/22 09:05:57;;;;;;;2.63;0.35;;;11.30;99.00;;;;;;5369286;26;19996;-72
2024/04/22 09:08:23;;;;;;;3.63;0.75;;;11.30;99.60;;;;;;5369827;26;20000;-73
2024/04/22 09:10:57;;;;;;;6.13;0.90;;;11.40;99.90;;;;;;5365086;26;20001;-72
2024/04/22 09:13:23;;;;;;;5.72;0.70;;;11.50;99.90;;;;;;5365762;26;20000;-73
2024/04/22 09:15:55;;;;;;;5.32;0.65;;;11.70;99.80;;;;;;5337407;26;20015;-71
2024/04/22 09:18:22;;;;;;;2.30;0.40;;;11.90;99.90;;;;;;5336575;26;20384;-72
2024/04/22 09:20:48;;;;;;;4.47;0.60;;;12.00;99.50;;;;;;5362522;26;20470;-72
2024/04/22 09:23:17;;;;;;;2.35;1.05;;;12.00;99.90;;;;;;5326385;26;20033;-71
2024/04/22 09:25:43;;;;;;;1.65;0.65;;;11.90;99.30;;;;;;5360629;26;20026;-74
2024/04/22 09:28:11;;;;;;;5.63;0.50;;;11.60;99.50;;;;;;5369253;26;20008;-72
2024/04/22 09:30:40;;;;;;;1.90;0.60;;;11.30;99.60;;;;;;5336084;26;20425;-72
2024/04/22 09:33:08;;;;;;;2.45;0.50;;;11.00;99.90;;;;;;5363532;26;20011;-72
2024/04/22 09:35:35;;;;;;;0.70;0.38;;;10.80;99.80;;;;;;5364012;26;20004;-73
2024/04/22 09:38:01;;;;;;;4.05;0.70;;;10.40;99.90;;;;;;5369092;26;20000;-68
2024/04/22 09:40:28;;;;;;;2.22;0.30;;;10.30;99.90;;;;;;5372722;26;20078;-73
2024/04/22 09:42:54;;;;;;;1.77;0.52;;;10.20;99.90;;;;;;5364557;26;20004;-71
2024/04/22 09:45:20;;;;;;;3.40;0.63;;;10.20;99.90;;;;;;5368591;26;20016;-72
2024/04/22 09:47:47;;;;;;;2.63;0.85;;;10.30;99.90;;;;;;5364662;26;20480;-72
2024/04/22 09:50:16;;;;;;;3.22;0.45;;;10.70;99.90;;;;;;5366692;26;20011;-72
2024/04/22 09:52:42;;;;;;;2.75;0.35;;;10.90;99.90;;;;;;5366446;26;20000;-70
2024/04/22 09:55:07;;;;;;;3.22;0.80;;;11.00;99.90;;;;;;5368541;26;20019;-72
2024/04/22 09:57:40;;;;;;;4.68;0.55;;;11.10;99.90;;;;;;5361526;26;20015;-75
2024/04/22 10:00:07;;;;;;;1.27;0.30;;;10.90;99.30;;;;;;5361497;26;20015;-72
2024/04/22 10:02:32;;;;;;;1.80;0.55;;;10.90;99.90;;;;;;5319401;26;20047;-72
2024/04/22 10:04:58;;;;;;;1.55;0.50;;;10.80;98.90;;;;;;5362088;26;20012;-74
2024/04/22 10:07:24;;;;;;;0.55;0.20;;;11.00;98.60;;;;;;5358027;26;20723;-72
2024/04/22 10:09:50;;;;;;;1.38;0.28;;;11.10;99.90;;;;;;5358388;26;20992;-71
2024/04/22 10:12:28;;;;;;;4.00;1.08;;;11.20;99.90;;;;;;5365659;26;20000;-72
2024/04/22 10:15:05;;;;;;;4.32;0.85;;;11.50;99.90;;;;;;5366595;26;20008;-74
2024/04/22 10:17:32;;;;;;;1.73;0.65;;;11.40;99.90;;;;;;5366013;26;20004;-72
2024/04/22 10:19:59;;;;;;;4.78;0.75;;;11.20;99.90;;;;;;5365960;26;20425;-72
2024/04/22 10:22:32;;;;;;;2.83;0.60;;;11.00;99.90;;;;;;5361260;26;20004;-72
2024/04/22 10:25:02;;;;;;;4.35;0.52;;;10.70;99.90;;;;;;5361602;26;20004;-71
2024/04/22 10:27:28;;;;;;;3.45;0.85;;;10.60;99.90;;;;;;5361998;26;20011;-72
2024/04/22 10:29:54;;;;;;;5.95;1.38;;;10.50;99.90;;;;;;5362820;26;20760;-72
2024/04/22 10:32:19;;;;;;;4.75;1.15;;;10.30;99.90;;;;;;5363451;26;20488;-73
2024/04/22 10:34:45;;;;;;;5.03;0.85;;;10.20;99.90;;;;;;5356075;26;20599;-73
2024/04/22 10:37:11;;;;;;;1.73;0.68;;;10.10;99.90;;;;;;5364033;26;20074;-71
2024/04/22 10:39:37;;;;;;;6.47;0.85;;;10.10;99.90;;;;;;5362567;26;20470;-72
2024/04/22 10:42:03;;;;;;;3.08;0.90;;;10.10;99.90;;;;;;5361949;26;20073;-72
2024/04/22 10:44:30;;;;;;;3.47;0.82;;;10.10;99.90;;;;;;5359971;26;20000;-73
2024/04/22 10:46:55;;;;;;;5.78;1.00;;;10.30;99.90;;;;;;5366303;26;20916;-74
2024/04/22 10:49:21;;;;;;;4.78;0.75;;;10.40;99.90;;;;;;5365427;26;20005;-72
2024/04/22 10:51:48;;;;;;;2.03;0.60;;;10.30;99.90;;;;;;5327061;26;20005;-72
2024/04/22 10:54:14;;;;;;;3.08;0.88;;;10.30;99.90;;;;;;5363279;26;20484;-72
2024/04/22 10:56:40;;;;;;;7.57;0.80;;;10.50;99.90;;;;;;5365002;26;20004;-67
2024/04/22 10:59:06;;;;;;;2.78;0.80;;;10.50;99.90;;;;;;5365761;26;20436;-72
2024/04/22 11:01:32;;;;;;;2.92;1.38;;;10.60;99.90;;;;;;5366614;26;20047;-72
2024/04/22 11:03:58;;;;;;;4.93;1.02;;;10.60;99.90;;;;;;5365925;26;20452;-72
2024/04/22 11:06:24;;;;;;;3.35;0.75;;;10.60;99.90;;;;;;5367098;26;20086;-72
2024/04/22 11:08:50;;;;;;;3.58;0.75;;;10.60;99.90;;;;;;5362715;26;20020;-72
2024/04/22 11:11:17;;;;;;;1.13;0.47;;;10.50;98.80;;;;;;5361338;26;20020;-72
2024/04/22 11:13:44;;;;;;;3.55;0.60;;;10.40;99.00;;;;;;5363254;26;20011;-72
2024/04/22 11:16:10;;;;;;;1.05;0.63;;;10.30;99.30;;;;;;5331943;26;20016;-71
2024/04/22 11:18:37;;;;;;;2.35;0.85;;;10.30;98.80;;;;;;5365581;26;20000;-71
2024/04/22 11:21:04;;;;;;;2.53;0.47;;;10.20;98.90;;;;;;5366617;26;20019;-73
2024/04/22 11:23:30;;;;;;;1.25;0.60;;;10.20;98.10;;;;;;5336992;26;20015;-72
2024/04/22 11:25:55;;;;;;;3.30;0.50;;;10.20;98.50;;;;;;5366392;26;20008;-73
2024/04/22 11:28:21;;;;;;;2.63;0.77;;;10.00;99.90;;;;;;5367885;26;20008;-69
2024/04/22 11:30:47;;;;;;;2.78;0.80;;;9.50;99.90;;;;;;5366275;26;20001;-70
2024/04/22 11:33:13;;;;;;;2.17;0.80;;;9.30;99.90;;;;;;5336434;26;20090;-70
2024/04/22 11:35:39;;;;;;;6.97;1.10;;;9.10;99.90;;;;;;5361009;26;20040;-75
2024/04/22 11:38:12;;;;;;;1.60;0.80;;;9.10;99.90;;;;;;5362322;26;20027;-71
2024/04/22 11:40:39;;;;;;;2.60;0.90;;;9.10;99.90;;;;;;5369603;26;20019;-72
2024/04/22 11:43:05;;;;;;;1.45;0.52;;;9.30;99.90;;;;;;5368793;26;20008;-72
2024/04/22 11:45:30;;;;;;;4.32;0.70;;;9.50;99.90;;;;;;5364412;26;20009;-73
2024/04/22 11:47:56;;;;;;;1.60;0.50;;;9.70;99.90;;;;;;5366704;26;20001;-69
2024/04/22 11:50:21;;;;;;;2.17;0.63;;;9.80;99.90;;;;;;5366613;26;20012;-73
2024/04/22 11:52:47;;;;;;;2.38;0.60;;;9.90;99.90;;;;;;5364608;26;20074;-71
2024/04/22 11:55:13;;;;;;;1.52;0.60;;;10.10;99.90;;;;;;5365244;26;20059;-70
2024/04/22 11:57:40;;;;;;;0.88;0.45;;;10.40;99.90;;;;;;5367686;26;20740;-71
2024/04/22 12:00:07;;;;;;;1.02;0.40;;;10.60;99.20;;;;;;5365109;26;20009;-71
2024/04/22 12:02:33;;;;;;;1.65;1.05;;;10.80;98.30;;;;;;5370500;26;20001;-72
2024/04/22 12:05:02;;;;;;;2.15;0.60;;;10.80;98.00;;;;;;5364225;26;20000;-70
2024/04/22 12:07:28;;;;;;;0.95;0.50;;;10.90;98.30;;;;;;5368971;26;20011;-72
2024/04/22 12:09:53;;;;;;;1.65;0.90;;;11.00;96.90;;;;;;5338393;26;20000;-70
2024/04/22 12:12:19;;;;;;;1.83;0.50;;;11.00;96.90;;;;;;5370019;26;20015;-69
2024/04/22 12:14:44;;;;;;;3.15;0.55;;;11.10;97.10;;;;;;5368609;26;20469;-72
2024/04/22 12:17:11;;;;;;;3.08;0.50;;;11.10;95.90;;;;;;5368842;26;20004;-73
2024/04/22 12:19:36;;;;;;;1.40;0.60;;;11.10;95.80;;;;;;5339407;26;20015;-72
2024/04/22 12:22:02;;;;;;;4.20;0.70;;;11.00;95.40;;;;;;5368561;26;20000;-73
2024/04/22 12:24:28;;;;;;;1.02;0.75;;;10.90;95.70;;;;;;5369697;26;20001;-73
2024/04/22 12:26:53;;;;;;;2.38;0.43;;;10.90;96.20;;;;;;5369181;26;20001;-72
2024/04/22 12:29:19;;;;;;;0.82;0.50;;;11.00;96.30;;;;;;5367273;26;20342;-69
2024/04/22 12:31:44;;;;;;;1.10;0.40;;;11.10;96.60;;;;;;5356257;26;19996;-73
2024/04/22 12:34:10;;;;;;;1.15;0.50;;;11.10;96.60;;;;;;5377534;26;20040;-72
2024/04/22 12:36:35;;;;;;;1.33;0.70;;;11.00;96.90;;;;;;5383157;26;20069;-72
2024/04/22 12:39:01;;;;;;;0.90;0.50;;;11.00;96.80;;;;;;5378475;26;20000;-72
2024/04/22 12:41:26;;;;;;;3.90;1.05;;;10.90;96.40;;;;;;5377336;26;20028;-70
2024/04/22 12:43:52;;;;;;;1.45;0.57;;;10.90;96.30;;;;;;5373341;26;20011;-72
2024/04/22 12:46:17;;;;;;;2.15;0.68;;;10.90;96.50;;;;;;5364174;26;20022;-73
2024/04/22 12:51:27;;;;;;;2.58;0.90;;;10.80;95.90;;;;;;5363318;26;20201;-71
2024/04/22 12:53:53;;;;;;;2.25;0.55;;;10.70;95.40;;;;;;5365528;26;20008;-71
2024/04/22 12:56:18;;;;;;;2.83;0.50;;;10.60;95.20;;;;;;5364355;26;20020;-72
2024/04/22 12:58:44;;;;;;;1.17;0.52;;;10.50;95.60;;;;;;5366879;26;20805;-72